sensor_id;sensor_type;location;lat;lon;timestamp;P1;durP1;ratioP1;P2;durP2;ratioP2
29878;SDS011;16752;53.364;-1.488;2023-09-07T00:00:26;22.45;;;17.45;;
29878;SDS011;16752;53.364;-1.488;2023-09-07T00:03:11;22.42;;;17.63;;
29878;SDS011;16752;53.364;-1.488;2023-09-07T00:05:56;22.40;;;17.33;;
29878;SDS011;16752;53.364;-1.488;2023-09-07T00:08:40;22.95;;;16.77;;
29878;SDS011;16752;53.364;-1.488;2023-09-07T00:11:24;24.92;;;17.73;;
29878;SDS011;16752;53.364;-1.488;2023-09-07T00:14:08;18.92;;;15.55;;
29878;SDS011;16752;53.364;-1.488;2023-09-07T00:16:52;19.75;;;16.92;;
29878;SDS011;16752;53.364;-1.488;2023-09-07T00:19:36;23.73;;;16.58;;
29878;SDS011;16752;53.364;-1.488;2023-09-07T00:22:20;22.38;;;16.85;;
29878;SDS011;16752;53.364;-1.488;2023-09-07T00:25:04;24.92;;;18.77;;
29878;SDS011;16752;53.364;-1.488;2023-09-07T00:27:50;23.35;;;17.60;;
29878;SDS011;16752;53.364;-1.488;2023-09-07T00:30:34;21.40;;;16.98;;
29878;SDS011;16752;53.364;-1.488;2023-09-07T00:33:18;22.25;;;17.52;;
29878;SDS011;16752;53.364;-1.488;2023-09-07T00:36:02;22.17;;;17.90;;
29878;SDS011;16752;53.364;-1.488;2023-09-07T00:38:47;21.88;;;17.45;;
29878;SDS011;16752;53.364;-1.488;2023-09-07T00:41:31;19.90;;;16.42;;
29878;SDS011;16752;53.364;-1.488;2023-09-07T00:44:15;23.00;;;17.05;;
29878;SDS011;16752;53.364;-1.488;2023-09-07T00:46:59;21.70;;;16.08;;
29878;SDS011;16752;53.364;-1.488;2023-09-07T00:49:44;22.75;;;17.33;;
29878;SDS011;16752;53.364;-1.488;2023-09-07T00:52:28;24.83;;;18.10;;
29878;SDS011;16752;53.364;-1.488;2023-09-07T00:55:12;27.48;;;17.13;;
29878;SDS011;16752;53.364;-1.488;2023-09-07T00:57:57;25.77;;;17.77;;
29878;SDS011;16752;53.364;-1.488;2023-09-07T01:00:41;21.67;;;16.90;;
29878;SDS011;16752;53.364;-1.488;2023-09-07T01:03:26;22.90;;;18.27;;
29878;SDS011;16752;53.364;-1.488;2023-09-07T01:06:12;21.05;;;16.38;;
29878;SDS011;16752;53.364;-1.488;2023-09-07T01:09:05;21.83;;;17.35;;
29878;SDS011;16752;53.364;-1.488;2023-09-07T01:11:54;21.85;;;16.33;;
29878;SDS011;16752;53.364;-1.488;2023-09-07T01:14:38;22.27;;;17.30;;
29878;SDS011;16752;53.364;-1.488;2023-09-07T01:17:22;28.35;;;17.95;;
29878;SDS011;16752;53.364;-1.488;2023-09-07T01:20:07;23.85;;;17.92;;
29878;SDS011;16752;53.364;-1.488;2023-09-07T01:22:53;27.33;;;18.27;;
29878;SDS011;16752;53.364;-1.488;2023-09-07T01:25:39;23.38;;;18.08;;
29878;SDS011;16752;53.364;-1.488;2023-09-07T01:28:24;22.00;;;16.98;;
29878;SDS011;16752;53.364;-1.488;2023-09-07T01:31:08;22.10;;;16.70;;
29878;SDS011;16752;53.364;-1.488;2023-09-07T01:33:53;20.42;;;16.23;;
29878;SDS011;16752;53.364;-1.488;2023-09-07T01:36:37;21.65;;;17.38;;
29878;SDS011;16752;53.364;-1.488;2023-09-07T01:39:21;23.63;;;17.02;;
29878;SDS011;16752;53.364;-1.488;2023-09-07T01:42:06;24.27;;;17.92;;
29878;SDS011;16752;53.364;-1.488;2023-09-07T01:44:50;21.92;;;16.08;;
29878;SDS011;16752;53.364;-1.488;2023-09-07T01:47:34;19.52;;;16.30;;
29878;SDS011;16752;53.364;-1.488;2023-09-07T01:50:18;20.90;;;17.15;;
29878;SDS011;16752;53.364;-1.488;2023-09-07T01:53:02;20.38;;;17.85;;
29878;SDS011;16752;53.364;-1.488;2023-09-07T01:55:48;22.60;;;18.58;;
29878;SDS011;16752;53.364;-1.488;2023-09-07T01:58:32;22.27;;;17.60;;
29878;SDS011;16752;53.364;-1.488;2023-09-07T02:01:27;22.80;;;17.75;;
29878;SDS011;16752;53.364;-1.488;2023-09-07T02:04:14;22.10;;;17.45;;
29878;SDS011;16752;53.364;-1.488;2023-09-07T02:06:58;21.40;;;17.85;;
29878;SDS011;16752;53.364;-1.488;2023-09-07T02:09:42;19.30;;;15.95;;
29878;SDS011;16752;53.364;-1.488;2023-09-07T02:12:26;21.42;;;17.40;;
29878;SDS011;16752;53.364;-1.488;2023-09-07T02:15:10;20.48;;;16.88;;
29878;SDS011;16752;53.364;-1.488;2023-09-07T02:17:54;23.45;;;17.90;;
29878;SDS011;16752;53.364;-1.488;2023-09-07T02:20:38;24.63;;;18.13;;
29878;SDS011;16752;53.364;-1.488;2023-09-07T02:23:23;23.33;;;17.17;;
29878;SDS011;16752;53.364;-1.488;2023-09-07T02:26:09;22.00;;;17.50;;
29878;SDS011;16752;53.364;-1.488;2023-09-07T02:31:40;23.95;;;16.67;;
29878;SDS011;16752;53.364;-1.488;2023-09-07T02:34:24;24.20;;;17.52;;
29878;SDS011;16752;53.364;-1.488;2023-09-07T02:37:14;21.88;;;18.42;;
29878;SDS011;16752;53.364;-1.488;2023-09-07T02:43:48;27.40;;;18.35;;
29878;SDS011;16752;53.364;-1.488;2023-09-07T02:46:35;21.02;;;17.08;;
29878;SDS011;16752;53.364;-1.488;2023-09-07T02:49:27;20.80;;;17.45;;
29878;SDS011;16752;53.364;-1.488;2023-09-07T02:52:44;22.42;;;17.02;;
29878;SDS011;16752;53.364;-1.488;2023-09-07T02:59:28;19.52;;;16.25;;
29878;SDS011;16752;53.364;-1.488;2023-09-07T03:02:27;22.55;;;17.40;;
29878;SDS011;16752;53.364;-1.488;2023-09-07T03:05:19;20.67;;;17.55;;
29878;SDS011;16752;53.364;-1.488;2023-09-07T03:08:03;27.73;;;18.42;;
29878;SDS011;16752;53.364;-1.488;2023-09-07T03:10:51;22.42;;;16.05;;
29878;SDS011;16752;53.364;-1.488;2023-09-07T03:13:35;19.25;;;17.02;;
29878;SDS011;16752;53.364;-1.488;2023-09-07T03:16:19;23.20;;;16.80;;
29878;SDS011;16752;53.364;-1.488;2023-09-07T03:19:03;23.38;;;16.95;;
29878;SDS011;16752;53.364;-1.488;2023-09-07T03:21:47;22.67;;;16.25;;
29878;SDS011;16752;53.364;-1.488;2023-09-07T03:24:34;20.77;;;16.73;;
29878;SDS011;16752;53.364;-1.488;2023-09-07T03:27:18;20.55;;;16.70;;
29878;SDS011;16752;53.364;-1.488;2023-09-07T03:30:04;23.15;;;17.55;;
29878;SDS011;16752;53.364;-1.488;2023-09-07T03:32:52;23.40;;;18.17;;
29878;SDS011;16752;53.364;-1.488;2023-09-07T03:35:39;23.67;;;17.05;;
29878;SDS011;16752;53.364;-1.488;2023-09-07T03:38:24;19.90;;;15.75;;
29878;SDS011;16752;53.364;-1.488;2023-09-07T03:41:08;20.80;;;16.83;;
29878;SDS011;16752;53.364;-1.488;2023-09-07T03:43:53;21.30;;;16.77;;
29878;SDS011;16752;53.364;-1.488;2023-09-07T03:46:37;18.23;;;15.25;;
29878;SDS011;16752;53.364;-1.488;2023-09-07T03:49:22;22.42;;;15.35;;
29878;SDS011;16752;53.364;-1.488;2023-09-07T03:52:11;20.02;;;16.60;;
29878;SDS011;16752;53.364;-1.488;2023-09-07T03:55:06;18.75;;;15.98;;
29878;SDS011;16752;53.364;-1.488;2023-09-07T03:57:50;24.52;;;17.42;;
29878;SDS011;16752;53.364;-1.488;2023-09-07T04:00:34;19.92;;;17.35;;
29878;SDS011;16752;53.364;-1.488;2023-09-07T04:03:20;21.90;;;16.27;;
29878;SDS011;16752;53.364;-1.488;2023-09-07T04:06:04;21.17;;;16.02;;
29878;SDS011;16752;53.364;-1.488;2023-09-07T04:08:48;18.70;;;15.88;;
29878;SDS011;16752;53.364;-1.488;2023-09-07T04:11:33;18.45;;;15.38;;
29878;SDS011;16752;53.364;-1.488;2023-09-07T04:14:17;22.98;;;17.30;;
29878;SDS011;16752;53.364;-1.488;2023-09-07T04:17:29;21.75;;;17.08;;
29878;SDS011;16752;53.364;-1.488;2023-09-07T04:20:23;24.85;;;17.55;;
29878;SDS011;16752;53.364;-1.488;2023-09-07T04:23:15;19.23;;;15.65;;
29878;SDS011;16752;53.364;-1.488;2023-09-07T04:26:09;22.58;;;15.77;;
29878;SDS011;16752;53.364;-1.488;2023-09-07T04:28:54;23.67;;;17.13;;
29878;SDS011;16752;53.364;-1.488;2023-09-07T04:31:38;19.08;;;16.23;;
29878;SDS011;16752;53.364;-1.488;2023-09-07T04:34:23;25.35;;;15.85;;
29878;SDS011;16752;53.364;-1.488;2023-09-07T04:37:07;22.90;;;16.70;;
29878;SDS011;16752;53.364;-1.488;2023-09-07T04:39:52;22.63;;;17.75;;
29878;SDS011;16752;53.364;-1.488;2023-09-07T04:42:37;20.85;;;16.38;;
29878;SDS011;16752;53.364;-1.488;2023-09-07T04:45:24;21.48;;;16.80;;
29878;SDS011;16752;53.364;-1.488;2023-09-07T04:48:08;21.15;;;16.10;;
29878;SDS011;16752;53.364;-1.488;2023-09-07T04:50:59;20.80;;;16.50;;
29878;SDS011;16752;53.364;-1.488;2023-09-07T04:53:47;20.75;;;16.88;;
29878;SDS011;16752;53.364;-1.488;2023-09-07T04:56:31;23.02;;;17.48;;
29878;SDS011;16752;53.364;-1.488;2023-09-07T04:59:16;25.13;;;18.42;;
29878;SDS011;16752;53.364;-1.488;2023-09-07T05:02:00;30.48;;;20.27;;
29878;SDS011;16752;53.364;-1.488;2023-09-07T05:04:47;28.00;;;20.15;;
29878;SDS011;16752;53.364;-1.488;2023-09-07T05:07:31;27.55;;;18.55;;
29878;SDS011;16752;53.364;-1.488;2023-09-07T05:10:15;31.73;;;20.65;;
29878;SDS011;16752;53.364;-1.488;2023-09-07T05:13:00;32.55;;;21.23;;
29878;SDS011;16752;53.364;-1.488;2023-09-07T05:15:48;23.77;;;18.25;;
29878;SDS011;16752;53.364;-1.488;2023-09-07T05:21:17;31.95;;;21.48;;
29878;SDS011;16752;53.364;-1.488;2023-09-07T05:24:01;32.88;;;21.80;;
29878;SDS011;16752;53.364;-1.488;2023-09-07T05:26:46;32.55;;;21.40;;
29878;SDS011;16752;53.364;-1.488;2023-09-07T05:29:30;30.25;;;21.55;;
29878;SDS011;16752;53.364;-1.488;2023-09-07T05:32:14;29.75;;;21.50;;
29878;SDS011;16752;53.364;-1.488;2023-09-07T05:34:58;33.05;;;22.73;;
29878;SDS011;16752;53.364;-1.488;2023-09-07T05:37:42;34.42;;;23.52;;
29878;SDS011;16752;53.364;-1.488;2023-09-07T05:40:27;33.05;;;25.42;;
29878;SDS011;16752;53.364;-1.488;2023-09-07T05:43:12;40.38;;;28.10;;
29878;SDS011;16752;53.364;-1.488;2023-09-07T05:45:56;35.60;;;26.33;;
29878;SDS011;16752;53.364;-1.488;2023-09-07T05:48:40;45.15;;;31.27;;
29878;SDS011;16752;53.364;-1.488;2023-09-07T05:51:24;47.20;;;34.47;;
29878;SDS011;16752;53.364;-1.488;2023-09-07T05:54:08;52.75;;;35.33;;
29878;SDS011;16752;53.364;-1.488;2023-09-07T05:56:53;63.15;;;41.30;;
29878;SDS011;16752;53.364;-1.488;2023-09-07T05:59:37;61.10;;;42.67;;
29878;SDS011;16752;53.364;-1.488;2023-09-07T06:02:21;55.08;;;39.60;;
29878;SDS011;16752;53.364;-1.488;2023-09-07T06:05:06;50.55;;;34.97;;
29878;SDS011;16752;53.364;-1.488;2023-09-07T06:07:51;52.63;;;35.95;;
29878;SDS011;16752;53.364;-1.488;2023-09-07T06:10:35;61.03;;;40.28;;
29878;SDS011;16752;53.364;-1.488;2023-09-07T06:13:19;57.97;;;39.45;;
29878;SDS011;16752;53.364;-1.488;2023-09-07T06:16:03;52.60;;;34.28;;
29878;SDS011;16752;53.364;-1.488;2023-09-07T06:18:48;52.17;;;35.40;;
29878;SDS011;16752;53.364;-1.488;2023-09-07T06:21:32;51.25;;;35.42;;
29878;SDS011;16752;53.364;-1.488;2023-09-07T06:24:16;48.22;;;33.50;;
29878;SDS011;16752;53.364;-1.488;2023-09-07T06:27:01;52.40;;;36.70;;
29878;SDS011;16752;53.364;-1.488;2023-09-07T06:29:45;51.35;;;33.70;;
29878;SDS011;16752;53.364;-1.488;2023-09-07T06:32:30;54.72;;;34.50;;
29878;SDS011;16752;53.364;-1.488;2023-09-07T06:35:14;59.40;;;37.05;;
29878;SDS011;16752;53.364;-1.488;2023-09-07T06:37:59;57.33;;;39.58;;
29878;SDS011;16752;53.364;-1.488;2023-09-07T06:40:53;55.35;;;34.03;;
29878;SDS011;16752;53.364;-1.488;2023-09-07T06:43:53;59.38;;;39.03;;
29878;SDS011;16752;53.364;-1.488;2023-09-07T06:46:40;46.50;;;32.63;;
29878;SDS011;16752;53.364;-1.488;2023-09-07T06:49:26;50.90;;;33.45;;
29878;SDS011;16752;53.364;-1.488;2023-09-07T06:52:13;56.55;;;38.58;;
29878;SDS011;16752;53.364;-1.488;2023-09-07T06:54:58;54.70;;;37.65;;
29878;SDS011;16752;53.364;-1.488;2023-09-07T06:57:45;52.67;;;34.72;;
29878;SDS011;16752;53.364;-1.488;2023-09-07T07:00:40;52.88;;;35.53;;
29878;SDS011;16752;53.364;-1.488;2023-09-07T07:03:54;47.28;;;32.03;;
29878;SDS011;16752;53.364;-1.488;2023-09-07T07:06:46;44.80;;;30.00;;
29878;SDS011;16752;53.364;-1.488;2023-09-07T07:09:33;52.05;;;33.63;;
29878;SDS011;16752;53.364;-1.488;2023-09-07T07:12:17;44.63;;;29.48;;
29878;SDS011;16752;53.364;-1.488;2023-09-07T07:15:25;43.90;;;31.17;;
29878;SDS011;16752;53.364;-1.488;2023-09-07T07:18:12;50.93;;;32.53;;
29878;SDS011;16752;53.364;-1.488;2023-09-07T07:24:43;44.90;;;30.48;;
29878;SDS011;16752;53.364;-1.488;2023-09-07T07:37:37;41.38;;;26.40;;
29878;SDS011;16752;53.364;-1.488;2023-09-07T07:40:23;35.25;;;24.02;;
29878;SDS011;16752;53.364;-1.488;2023-09-07T07:46:22;43.75;;;22.83;;
29878;SDS011;16752;53.364;-1.488;2023-09-07T07:55:36;34.67;;;24.77;;
29878;SDS011;16752;53.364;-1.488;2023-09-07T07:58:24;34.20;;;24.67;;
29878;SDS011;16752;53.364;-1.488;2023-09-07T08:01:15;31.70;;;22.38;;
29878;SDS011;16752;53.364;-1.488;2023-09-07T08:04:21;35.58;;;22.92;;
29878;SDS011;16752;53.364;-1.488;2023-09-07T08:07:17;29.95;;;20.88;;
29878;SDS011;16752;53.364;-1.488;2023-09-07T08:10:20;30.40;;;23.00;;
29878;SDS011;16752;53.364;-1.488;2023-09-07T08:13:04;36.80;;;24.77;;
29878;SDS011;16752;53.364;-1.488;2023-09-07T08:15:49;30.75;;;23.20;;
29878;SDS011;16752;53.364;-1.488;2023-09-07T08:22:16;28.50;;;23.35;;
29878;SDS011;16752;53.364;-1.488;2023-09-07T08:25:02;31.48;;;24.20;;
29878;SDS011;16752;53.364;-1.488;2023-09-07T08:31:15;32.40;;;23.15;;
29878;SDS011;16752;53.364;-1.488;2023-09-07T08:34:50;31.55;;;23.23;;
29878;SDS011;16752;53.364;-1.488;2023-09-07T08:41:15;26.13;;;19.30;;
29878;SDS011;16752;53.364;-1.488;2023-09-07T08:48:04;28.50;;;18.13;;
29878;SDS011;16752;53.364;-1.488;2023-09-07T08:57:31;23.48;;;14.27;;
29878;SDS011;16752;53.364;-1.488;2023-09-07T09:00:16;23.92;;;15.35;;
29878;SDS011;16752;53.364;-1.488;2023-09-07T09:03:12;21.05;;;16.27;;
29878;SDS011;16752;53.364;-1.488;2023-09-07T09:06:13;30.48;;;15.68;;
29878;SDS011;16752;53.364;-1.488;2023-09-07T09:16:25;21.38;;;12.35;;
29878;SDS011;16752;53.364;-1.488;2023-09-07T09:22:24;16.55;;;11.95;;
29878;SDS011;16752;53.364;-1.488;2023-09-07T09:40:41;22.30;;;14.77;;
29878;SDS011;16752;53.364;-1.488;2023-09-07T09:47:33;27.13;;;18.20;;
29878;SDS011;16752;53.364;-1.488;2023-09-07T09:50:19;25.92;;;17.02;;
29878;SDS011;16752;53.364;-1.488;2023-09-07T09:53:25;23.33;;;16.30;;
29878;SDS011;16752;53.364;-1.488;2023-09-07T10:00:34;26.15;;;17.90;;
29878;SDS011;16752;53.364;-1.488;2023-09-07T10:06:28;28.52;;;22.13;;
29878;SDS011;16752;53.364;-1.488;2023-09-07T10:17:03;27.35;;;18.73;;
29878;SDS011;16752;53.364;-1.488;2023-09-07T10:19:50;27.30;;;17.80;;
29878;SDS011;16752;53.364;-1.488;2023-09-07T10:44:26;19.83;;;12.68;;
29878;SDS011;16752;53.364;-1.488;2023-09-07T10:58:23;22.60;;;13.93;;
29878;SDS011;16752;53.364;-1.488;2023-09-07T11:44:46;14.50;;;9.77;;
29878;SDS011;16752;53.364;-1.488;2023-09-07T11:59:05;22.38;;;12.48;;
29878;SDS011;16752;53.364;-1.488;2023-09-07T12:52:07;12.25;;;8.10;;
29878;SDS011;16752;53.364;-1.488;2023-09-07T12:55:45;13.95;;;7.63;;
29878;SDS011;16752;53.364;-1.488;2023-09-07T13:02:35;21.17;;;9.02;;
29878;SDS011;16752;53.364;-1.488;2023-09-07T14:03:13;17.48;;;6.32;;
29878;SDS011;16752;53.364;-1.488;2023-09-07T14:05:58;10.95;;;7.47;;
29878;SDS011;16752;53.364;-1.488;2023-09-07T14:22:18;19.75;;;8.27;;
29878;SDS011;16752;53.364;-1.488;2023-09-07T15:10:15;9.30;;;5.60;;
29878;SDS011;16752;53.364;-1.488;2023-09-07T15:13:20;17.02;;;7.13;;
29878;SDS011;16752;53.364;-1.488;2023-09-07T15:34:09;7.43;;;4.20;;
29878;SDS011;16752;53.364;-1.488;2023-09-07T15:47:22;6.28;;;4.30;;
29878;SDS011;16752;53.364;-1.488;2023-09-07T15:53:18;13.30;;;5.60;;
29878;SDS011;16752;53.364;-1.488;2023-09-07T16:02:49;728.92;;;116.15;;
29878;SDS011;16752;53.364;-1.488;2023-09-07T16:05:55;77.03;;;16.98;;
29878;SDS011;16752;53.364;-1.488;2023-09-07T16:08:39;17.23;;;6.72;;
29878;SDS011;16752;53.364;-1.488;2023-09-07T16:11:27;22.77;;;7.10;;
29878;SDS011;16752;53.364;-1.488;2023-09-07T16:14:23;9.95;;;5.32;;
29878;SDS011;16752;53.364;-1.488;2023-09-07T16:17:12;5.47;;;4.97;;
29878;SDS011;16752;53.364;-1.488;2023-09-07T16:19:57;5.78;;;4.90;;
29878;SDS011;16752;53.364;-1.488;2023-09-07T16:23:07;12.98;;;4.85;;
29878;SDS011;16752;53.364;-1.488;2023-09-07T16:32:45;187.45;;;30.25;;
29878;SDS011;16752;53.364;-1.488;2023-09-07T16:35:32;59.50;;;13.73;;
29878;SDS011;16752;53.364;-1.488;2023-09-07T16:38:56;56.88;;;13.45;;
29878;SDS011;16752;53.364;-1.488;2023-09-07T16:41:41;50.38;;;12.75;;
29878;SDS011;16752;53.364;-1.488;2023-09-07T16:44:43;26.50;;;8.23;;
29878;SDS011;16752;53.364;-1.488;2023-09-07T16:47:27;14.02;;;5.85;;
29878;SDS011;16752;53.364;-1.488;2023-09-07T17:00:42;12.18;;;5.68;;
29878;SDS011;16752;53.364;-1.488;2023-09-07T17:16:35;7.38;;;6.57;;
29878;SDS011;16752;53.364;-1.488;2023-09-07T17:19:26;8.70;;;6.10;;
29878;SDS011;16752;53.364;-1.488;2023-09-07T17:22:18;11.07;;;6.25;;
29878;SDS011;16752;53.364;-1.488;2023-09-07T17:25:13;8.77;;;6.60;;
29878;SDS011;16752;53.364;-1.488;2023-09-07T17:27:57;8.85;;;5.72;;
29878;SDS011;16752;53.364;-1.488;2023-09-07T17:30:42;12.10;;;6.03;;
29878;SDS011;16752;53.364;-1.488;2023-09-07T17:33:39;10.90;;;6.18;;
29878;SDS011;16752;53.364;-1.488;2023-09-07T17:36:48;7.65;;;6.68;;
29878;SDS011;16752;53.364;-1.488;2023-09-07T17:39:34;10.00;;;6.57;;
29878;SDS011;16752;53.364;-1.488;2023-09-07T17:45:19;12.52;;;7.05;;
29878;SDS011;16752;53.364;-1.488;2023-09-07T17:48:06;11.88;;;7.30;;
29878;SDS011;16752;53.364;-1.488;2023-09-07T17:50:51;13.10;;;8.13;;
29878;SDS011;16752;53.364;-1.488;2023-09-07T17:53:35;14.57;;;8.73;;
29878;SDS011;16752;53.364;-1.488;2023-09-07T17:56:20;16.55;;;10.65;;
29878;SDS011;16752;53.364;-1.488;2023-09-07T17:59:07;19.10;;;11.18;;
29878;SDS011;16752;53.364;-1.488;2023-09-07T18:02:00;16.10;;;9.73;;
29878;SDS011;16752;53.364;-1.488;2023-09-07T18:04:44;11.85;;;7.80;;
29878;SDS011;16752;53.364;-1.488;2023-09-07T18:07:30;12.77;;;8.00;;
29878;SDS011;16752;53.364;-1.488;2023-09-07T18:10:17;13.63;;;7.65;;
29878;SDS011;16752;53.364;-1.488;2023-09-07T18:13:01;12.50;;;7.47;;
29878;SDS011;16752;53.364;-1.488;2023-09-07T18:15:51;10.00;;;6.43;;
29878;SDS011;16752;53.364;-1.488;2023-09-07T18:18:35;13.82;;;6.35;;
29878;SDS011;16752;53.364;-1.488;2023-09-07T18:21:22;9.93;;;6.10;;
29878;SDS011;16752;53.364;-1.488;2023-09-07T18:24:06;9.68;;;6.03;;
29878;SDS011;16752;53.364;-1.488;2023-09-07T18:26:50;10.00;;;5.90;;
29878;SDS011;16752;53.364;-1.488;2023-09-07T18:29:35;8.60;;;5.32;;
29878;SDS011;16752;53.364;-1.488;2023-09-07T18:32:19;9.35;;;5.40;;
29878;SDS011;16752;53.364;-1.488;2023-09-07T18:35:02;5.68;;;5.18;;
29878;SDS011;16752;53.364;-1.488;2023-09-07T18:37:50;7.05;;;5.57;;
29878;SDS011;16752;53.364;-1.488;2023-09-07T18:40:34;8.90;;;5.97;;
29878;SDS011;16752;53.364;-1.488;2023-09-07T18:43:22;8.68;;;5.97;;
29878;SDS011;16752;53.364;-1.488;2023-09-07T18:46:06;8.32;;;6.05;;
29878;SDS011;16752;53.364;-1.488;2023-09-07T18:48:51;14.82;;;7.13;;
29878;SDS011;16752;53.364;-1.488;2023-09-07T18:51:35;11.80;;;6.78;;
29878;SDS011;16752;53.364;-1.488;2023-09-07T18:54:19;10.30;;;6.60;;
29878;SDS011;16752;53.364;-1.488;2023-09-07T18:57:03;10.90;;;6.18;;
29878;SDS011;16752;53.364;-1.488;2023-09-07T18:59:48;9.20;;;6.78;;
29878;SDS011;16752;53.364;-1.488;2023-09-07T19:02:33;9.88;;;6.95;;
29878;SDS011;16752;53.364;-1.488;2023-09-07T19:05:17;7.65;;;6.50;;
29878;SDS011;16752;53.364;-1.488;2023-09-07T19:08:01;14.48;;;9.82;;
29878;SDS011;16752;53.364;-1.488;2023-09-07T19:10:45;13.18;;;8.65;;
29878;SDS011;16752;53.364;-1.488;2023-09-07T19:13:30;15.57;;;9.30;;
29878;SDS011;16752;53.364;-1.488;2023-09-07T19:16:15;12.95;;;9.80;;
29878;SDS011;16752;53.364;-1.488;2023-09-07T19:19:00;12.00;;;8.88;;
29878;SDS011;16752;53.364;-1.488;2023-09-07T19:21:44;13.75;;;9.02;;
29878;SDS011;16752;53.364;-1.488;2023-09-07T19:24:28;16.40;;;9.57;;
29878;SDS011;16752;53.364;-1.488;2023-09-07T19:27:12;13.05;;;9.50;;
29878;SDS011;16752;53.364;-1.488;2023-09-07T19:29:55;15.27;;;11.55;;
29878;SDS011;16752;53.364;-1.488;2023-09-07T19:32:43;15.07;;;11.07;;
29878;SDS011;16752;53.364;-1.488;2023-09-07T19:35:27;17.50;;;12.15;;
29878;SDS011;16752;53.364;-1.488;2023-09-07T19:38:11;17.00;;;12.65;;
29878;SDS011;16752;53.364;-1.488;2023-09-07T19:40:55;16.20;;;13.02;;
29878;SDS011;16752;53.364;-1.488;2023-09-07T19:43:42;15.32;;;12.95;;
29878;SDS011;16752;53.364;-1.488;2023-09-07T19:46:27;22.33;;;13.88;;
29878;SDS011;16752;53.364;-1.488;2023-09-07T19:49:11;17.60;;;11.38;;
29878;SDS011;16752;53.364;-1.488;2023-09-07T19:51:56;18.48;;;12.52;;
29878;SDS011;16752;53.364;-1.488;2023-09-07T19:54:40;17.15;;;11.88;;
29878;SDS011;16752;53.364;-1.488;2023-09-07T19:57:24;14.88;;;11.82;;
29878;SDS011;16752;53.364;-1.488;2023-09-07T20:00:09;20.35;;;13.40;;
29878;SDS011;16752;53.364;-1.488;2023-09-07T20:02:54;14.98;;;12.70;;
29878;SDS011;16752;53.364;-1.488;2023-09-07T20:05:40;17.98;;;13.43;;
29878;SDS011;16752;53.364;-1.488;2023-09-07T20:08:24;17.42;;;13.32;;
29878;SDS011;16752;53.364;-1.488;2023-09-07T20:11:09;21.80;;;13.73;;
29878;SDS011;16752;53.364;-1.488;2023-09-07T20:13:55;23.20;;;12.80;;
29878;SDS011;16752;53.364;-1.488;2023-09-07T20:16:39;15.98;;;11.45;;
29878;SDS011;16752;53.364;-1.488;2023-09-07T20:19:23;20.63;;;12.82;;
29878;SDS011;16752;53.364;-1.488;2023-09-07T20:22:07;18.00;;;12.32;;
29878;SDS011;16752;53.364;-1.488;2023-09-07T20:24:51;22.23;;;14.65;;
29878;SDS011;16752;53.364;-1.488;2023-09-07T20:27:35;21.20;;;13.05;;
29878;SDS011;16752;53.364;-1.488;2023-09-07T20:30:19;16.15;;;12.88;;
29878;SDS011;16752;53.364;-1.488;2023-09-07T20:33:03;21.13;;;13.82;;
29878;SDS011;16752;53.364;-1.488;2023-09-07T20:35:47;19.30;;;14.13;;
29878;SDS011;16752;53.364;-1.488;2023-09-07T20:38:31;19.85;;;14.73;;
29878;SDS011;16752;53.364;-1.488;2023-09-07T20:41:15;19.95;;;13.35;;
29878;SDS011;16752;53.364;-1.488;2023-09-07T20:43:59;16.27;;;12.05;;
29878;SDS011;16752;53.364;-1.488;2023-09-07T20:46:43;17.40;;;13.70;;
29878;SDS011;16752;53.364;-1.488;2023-09-07T20:49:27;20.13;;;15.43;;
29878;SDS011;16752;53.364;-1.488;2023-09-07T20:52:11;17.48;;;13.88;;
29878;SDS011;16752;53.364;-1.488;2023-09-07T20:54:58;17.77;;;14.57;;
29878;SDS011;16752;53.364;-1.488;2023-09-07T20:57:43;19.55;;;14.13;;
29878;SDS011;16752;53.364;-1.488;2023-09-07T21:00:29;18.33;;;14.45;;
29878;SDS011;16752;53.364;-1.488;2023-09-07T21:03:13;17.40;;;12.40;;
29878;SDS011;16752;53.364;-1.488;2023-09-07T21:05:57;17.67;;;13.40;;
29878;SDS011;16752;53.364;-1.488;2023-09-07T21:08:41;20.95;;;13.98;;
29878;SDS011;16752;53.364;-1.488;2023-09-07T21:11:25;18.90;;;14.80;;
29878;SDS011;16752;53.364;-1.488;2023-09-07T21:14:10;19.13;;;13.55;;
29878;SDS011;16752;53.364;-1.488;2023-09-07T21:16:54;14.57;;;13.07;;
29878;SDS011;16752;53.364;-1.488;2023-09-07T21:19:40;16.35;;;13.68;;
29878;SDS011;16752;53.364;-1.488;2023-09-07T21:22:24;16.92;;;12.90;;
29878;SDS011;16752;53.364;-1.488;2023-09-07T21:25:08;15.00;;;13.35;;
29878;SDS011;16752;53.364;-1.488;2023-09-07T21:27:53;19.58;;;15.00;;
29878;SDS011;16752;53.364;-1.488;2023-09-07T21:30:37;17.65;;;15.10;;
29878;SDS011;16752;53.364;-1.488;2023-09-07T21:33:21;22.05;;;16.58;;
29878;SDS011;16752;53.364;-1.488;2023-09-07T21:36:05;19.88;;;17.13;;
29878;SDS011;16752;53.364;-1.488;2023-09-07T21:38:50;21.52;;;14.90;;
29878;SDS011;16752;53.364;-1.488;2023-09-07T21:41:53;22.33;;;16.73;;
29878;SDS011;16752;53.364;-1.488;2023-09-07T21:44:38;20.85;;;16.70;;
29878;SDS011;16752;53.364;-1.488;2023-09-07T21:47:22;28.83;;;19.67;;
29878;SDS011;16752;53.364;-1.488;2023-09-07T21:50:06;23.05;;;18.05;;
29878;SDS011;16752;53.364;-1.488;2023-09-07T21:52:51;21.02;;;16.85;;
29878;SDS011;16752;53.364;-1.488;2023-09-07T21:55:36;27.27;;;18.88;;
29878;SDS011;16752;53.364;-1.488;2023-09-07T21:58:20;26.52;;;19.02;;
29878;SDS011;16752;53.364;-1.488;2023-09-07T22:01:05;23.70;;;18.35;;
29878;SDS011;16752;53.364;-1.488;2023-09-07T22:03:49;26.42;;;19.40;;
29878;SDS011;16752;53.364;-1.488;2023-09-07T22:06:34;25.98;;;20.23;;
29878;SDS011;16752;53.364;-1.488;2023-09-07T22:09:18;25.25;;;18.65;;
29878;SDS011;16752;53.364;-1.488;2023-09-07T22:12:03;25.65;;;19.15;;
29878;SDS011;16752;53.364;-1.488;2023-09-07T22:14:47;20.30;;;17.70;;
29878;SDS011;16752;53.364;-1.488;2023-09-07T22:17:31;25.65;;;18.15;;
29878;SDS011;16752;53.364;-1.488;2023-09-07T22:20:15;21.33;;;18.38;;
29878;SDS011;16752;53.364;-1.488;2023-09-07T22:23:00;23.05;;;19.13;;
29878;SDS011;16752;53.364;-1.488;2023-09-07T22:25:45;19.92;;;17.77;;
29878;SDS011;16752;53.364;-1.488;2023-09-07T22:28:31;22.77;;;17.60;;
29878;SDS011;16752;53.364;-1.488;2023-09-07T22:31:15;23.98;;;21.33;;
29878;SDS011;16752;53.364;-1.488;2023-09-07T22:34:00;29.02;;;22.17;;
29878;SDS011;16752;53.364;-1.488;2023-09-07T22:36:44;25.63;;;20.88;;
29878;SDS011;16752;53.364;-1.488;2023-09-07T22:39:28;25.20;;;21.67;;
29878;SDS011;16752;53.364;-1.488;2023-09-07T22:42:13;21.98;;;19.63;;
29878;SDS011;16752;53.364;-1.488;2023-09-07T22:44:57;22.65;;;18.02;;
29878;SDS011;16752;53.364;-1.488;2023-09-07T22:47:41;22.58;;;18.98;;
29878;SDS011;16752;53.364;-1.488;2023-09-07T22:50:26;24.92;;;20.83;;
29878;SDS011;16752;53.364;-1.488;2023-09-07T22:53:10;23.45;;;20.60;;
29878;SDS011;16752;53.364;-1.488;2023-09-07T22:55:54;28.65;;;23.90;;
29878;SDS011;16752;53.364;-1.488;2023-09-07T22:58:39;31.33;;;24.45;;
29878;SDS011;16752;53.364;-1.488;2023-09-07T23:01:24;33.00;;;24.95;;
29878;SDS011;16752;53.364;-1.488;2023-09-07T23:04:08;31.38;;;22.85;;
29878;SDS011;16752;53.364;-1.488;2023-09-07T23:06:52;27.02;;;23.52;;
29878;SDS011;16752;53.364;-1.488;2023-09-07T23:09:36;29.77;;;23.70;;
29878;SDS011;16752;53.364;-1.488;2023-09-07T23:12:20;23.73;;;20.85;;
29878;SDS011;16752;53.364;-1.488;2023-09-07T23:15:08;29.20;;;23.73;;
29878;SDS011;16752;53.364;-1.488;2023-09-07T23:17:52;26.33;;;23.00;;